Historyczne dane pomiarowe

Dodano dane terminowe – wersja testowa.

Dane z okresu 1951-2019

Wersja bazy: 1.34 [2019-03-16, lista zmian], aktualizacja planowana na 2019-04-15

Dane meteo z obszaru Polski uzyskane na podstawie danych udostępnionych przez Instytut Meteorologii i Gospodarki Wodnej – Państwowy Instytut Badawczy.

 

Wybierz Datę:    

       

TemperaturaWilgotnośćWiatrCiśnienieOpadyŚniegCzas trwania zjawisk
 Stacja t tx tn tng RH VA  wxwx mslp ppp RRR   cm mm wxwxwxwxwxwxwx
1999-08-14 15.9 22.8 9.5 4.9 67.5- 4.0 1.3---- 0.7------------
1999-08-13 15.8 20.5 11.7 7.7 72.5- 5.7 2.7---- 0.0------------
1999-08-12 15.1 19.0 10.9 8.3 78.8- 6.3 2.3---- 0.0------------
1999-08-11 19.4 23.8 16.5 13.3 79.0- 4.0 3.3---- 0.2------------
1999-08-10 21.6 26.3 17.2 13.7 78.3- 7.7 1.3---- 0.0------------
1999-08-09 21.5 27.0 17.6 13.0 74.0- 5.0 1.7---- 1.7------------
1999-08-08 24.2 30.7 18.5 13.3 67.0- 3.3 2.3---- 0.0------------
1999-08-07 22.5 30.7 13.4 9.3 59.5- 3.7 1.3---- 0.0------------
1999-08-06 21.4 29.3 11.2 10.0 62.8- 2.3 1.3---- 0.0------------
1999-08-05 20.8 29.0 11.7 7.8 57.0- 6.7 1.0---- 0.0------------
1999-08-04 20.7 28.8 11.2 6.8 52.3- 3.0 1.0---- 0.0------------
1999-08-03 20.2 28.4 11.7 6.7 50.0- 3.3 2.0---- 0.0------------
1999-08-02 20.6 27.5 12.9 8.2 56.5- 3.7 1.7---- 0.0------------
1999-08-01 21.2 28.1 13.2 8.3 48.0- 3.3 2.7---- 0.0------------
1999-07-31 21.3 28.3 13.4 8.8 49.0- 2.0 1.7---- 0.0------------
1999-07-30 20.1 27.2 11.1 6.2 60.8- 2.3 2.7---- 0.0------------
1999-07-29 19.6 25.8 12.1 8.1 57.0- 4.3 2.0---- 0.0------------
1999-07-28 19.0 25.8 10.9 6.3 58.8- 0.7 3.3---- 0.0------------
1999-07-27 17.9 23.3 11.1 8.1 58.8- 1.7 2.0---- 0.0------------
1999-07-26 21.3 27.3 16.5 13.6 74.0- 5.0 2.0---- 0.0------------
1999-07-25 20.4 24.6 14.6 10.7 74.0- 6.0 1.7---- 0.0------------
1999-07-24 17.8 21.8 14.2 12.8 69.5- 7.0 2.7---- 0.0------------
1999-07-23 16.5 21.4 12.8 9.3 81.3- 6.3 2.3---- 0.4------------
1999-07-22 19.4 24.0 16.2 13.2 60.0- 5.7 2.7---- 0.0------------
1999-07-21 22.9 28.3 18.3 15.9 75.5- 4.3 3.7---- 0.0------------
1999-07-20 22.7 32.3 14.5 11.3 61.5- 3.7 3.0---- 3.8------------
1999-07-19 23.9 31.3 14.7 11.2 54.8- 2.7 1.7---- 0.0------------
1999-07-18 22.3 29.4 13.4 10.3 56.3- 1.7 1.0---- 0.0------------
1999-07-17 19.4 25.4 11.2 7.9 62.0- 4.3 1.3---- 0.0------------
1999-07-16 17.4 22.8 12.2 9.8 72.0- 5.7 2.0---- 0.0------------
1999-07-15 17.2 19.8 14.4 13.0 72.3- 6.3 2.7---- 1.0------------
1999-07-14 20.7 26.1 17.7 15.9 86.5- 7.0 2.3---- 14.3------------
1999-07-13 22.7 28.8 16.6 14.9 78.5- 5.7 2.0---- 0.0------------
1999-07-12 23.6 29.6 16.9 14.9 58.5- 5.0 2.0---- 18.2------------
1999-07-11 22.0 28.0 14.1 11.2 51.3- 3.0 4.3---- 0.0------------
1999-07-10 21.6 26.6 15.9 13.7 58.0- 1.7 3.7---- 0.0------------
1999-07-09 19.8 24.9 15.7 14.9 75.0- 7.0 3.0---- 0.0------------
1999-07-08 17.0 18.6 15.9 15.1 95.3- 8.0 2.3---- 4.8------------
1999-07-07 18.6 24.2 16.1 15.5 90.0- 7.7 2.0---- 3.0------------
1999-07-06 23.7 28.2 18.5 15.8 71.3- 5.7 1.0---- 8.6------------
1999-07-05 25.1 32.8 17.6 14.9 69.3- 4.3 3.0---- 0.0------------
1999-07-04 22.0 30.4 14.5 12.4 73.8- 3.3 1.7---- 0.5------------
1999-07-03 21.3 27.3 14.6 11.3 75.5- 2.0 2.0---- 0.0------------
1999-07-02 19.1 23.8 16.0 13.2 88.5- 6.7 1.3---- 3.4------------
1999-07-01 20.4 25.3 17.8 15.8 87.0- 7.0 6.7---- 11.0------------
1999-06-30 20.4 26.6 11.5 7.9 60.5- 5.7 1.3---- 1.7------------
1999-06-29 19.1 24.2 13.1 9.2 66.0- 3.3 1.0---- 0.0------------
1999-06-28 20.1 27.3 14.2 11.2 85.3- 6.0 1.7---- 0.2------------
1999-06-27 20.5 26.2 12.9 9.9 71.8- 5.3 2.0---- 0.9------------
1999-06-26 14.7 20.4 5.8 2.5 72.5- 3.3 1.0---- 0.0------------
1999-06-25 13.5 18.4 9.6 5.4 74.0- 4.3 2.3---- 0.0------------
1999-06-24 13.3 18.5 4.9 1.8 69.5- 5.3 1.7---- 0.0------------
1999-06-23 13.1 16.3 9.3 8.7 75.8- 6.7 3.7---- 0.0------------
1999-06-22 11.2 13.4 9.9 9.1 95.5- 8.0 4.0---- 14.6------------
1999-06-21 16.1 20.6 12.9 13.5 86.0- 7.7 1.7---- 1.8------------
1999-06-20 18.9 23.5 14.0 10.6 83.8- 5.0 1.3---- 0.0------------
1999-06-19 16.2 18.4 13.9 12.9 91.0- 8.0 1.7---- 0.0------------
1999-06-18 17.6 22.0 12.3 9.1 94.3- 7.7 1.7---- 5.7------------
1999-06-17 18.5 22.0 15.2 10.1 80.0- 7.7 1.0---- 0.0------------
1999-06-16 17.0 20.9 11.8 10.1 78.0- 6.7 1.3---- 0.0------------
340.7 ms

 

Źródłem pochodzenia danych jest Instytut Meteorologii i Gospodarki Wodnej – Państwowy Instytut Badawczy. Dane Instytutu Meteorologii i Gospodarki Wodnej – Państwowego Instytutu Badawczego zostały przetworzone.

Dane źródłowe można odnaleźć na stronie https://dane.imgw.pl